
Distance (Route):
Temperature : -33.5°C
Humidity : 0%
Pressure : 0hPa| Receiver | Frames | First received | Last received |
|---|---|---|---|
| KE7DJD | 236 | 2026-09-02 23:54:49 | 2026-09-03 01:20:06 |
| Receiver | Date | Latitude | Longitude | Direction | Speed | Altitude | Climb | Temperature | Humidity | Pressure | Voltage | Killtimer | Uptime | BKT | XDATA |
|---|---|---|---|---|---|---|---|---|---|---|---|---|---|---|---|
| KE7DJD | 2026-09-03 01:20:06 | 41.30893 | -114.67398 | 58° | 115km/h | 9698m | -8.6m/s | -33.5°C | 0% | 0hPa | 0V | 00:00:00 | 00:00:00 | 00:00:00 | |
| KE7DJD | 2026-09-03 01:19:46 | 41.30553 | -114.68062 | 55° | 113km/h | 9880m | -8.6m/s | -35.6°C | 0% | 0hPa | 0V | 00:00:00 | 00:00:00 | 00:00:00 | |
| KE7DJD | 2026-09-03 01:19:22 | 41.30174 | -114.68746 | 53° | 106km/h | 10077m | -8.8m/s | -36.7°C | 0% | 0hPa | 0V | 00:00:00 | 00:00:00 | 00:00:00 | |
| KE7DJD | 2026-09-03 01:18:41 | 41.29532 | -114.69997 | 61° | 108km/h | 10440m | -8.7m/s | -39.7°C | 0% | 0hPa | 0V | 00:00:00 | 00:00:00 | 00:00:00 | |
| KE7DJD | 2026-09-03 01:18:18 | 41.29255 | -114.70667 | 61° | 100km/h | 10634m | -8.7m/s | -41.3°C | 0% | 0hPa | 0V | 00:00:00 | 00:00:00 | 00:00:00 | |
| KE7DJD | 2026-09-03 01:17:58 | 41.28974 | -114.71303 | 61° | 113km/h | 10818m | -9.1m/s | -41.9°C | 0% | 0hPa | 0V | 00:00:00 | 00:00:00 | 00:00:00 | |
| KE7DJD | 2026-09-03 01:17:36 | 41.28665 | -114.72057 | 66° | 130km/h | 11010m | -9.4m/s | -42.9°C | 0% | 0hPa | 0V | 00:00:00 | 00:00:00 | 00:00:00 | |
| KE7DJD | 2026-09-03 01:17:16 | 41.28399 | -114.72924 | 71° | 133km/h | 11212m | -9.5m/s | -42.8°C | 0% | 0hPa | 0V | 00:00:00 | 00:00:00 | 00:00:00 | |
| KE7DJD | 2026-09-03 01:16:55 | 41.28164 | -114.73779 | 71° | 126km/h | 11418m | -9.9m/s | -43.2°C | 0% | 0hPa | 0V | 00:00:00 | 00:00:00 | 00:00:00 | |
| KE7DJD | 2026-09-03 01:16:34 | 41.27934 | -114.74648 | 72° | 131km/h | 11628m | -10.2m/s | -43.4°C | 0% | 0hPa | 0V | 00:00:00 | 00:00:00 | 00:00:00 | |
| KE7DJD | 2026-09-03 01:16:13 | 41.27712 | -114.75484 | 73° | 130km/h | 11832m | -10.1m/s | -44.1°C | 0% | 0hPa | 0V | 00:00:00 | 00:00:00 | 00:00:00 | |
| KE7DJD | 2026-09-03 01:15:53 | 41.27508 | -114.76344 | 73° | 124km/h | 12048m | -10.3m/s | -45.3°C | 0% | 0hPa | 0V | 00:00:00 | 00:00:00 | 00:00:00 | |
| KE7DJD | 2026-09-03 01:15:32 | 41.27308 | -114.77137 | 72° | 124km/h | 12254m | -10.3m/s | -46.3°C | 0% | 0hPa | 0V | 00:00:00 | 00:00:00 | 00:00:00 | |
| KE7DJD | 2026-09-03 01:15:12 | 41.27094 | -114.77930 | 72° | 119km/h | 12471m | -10.3m/s | -46.5°C | 0% | 0hPa | 0V | 00:00:00 | 00:00:00 | 00:00:00 | |
| KE7DJD | 2026-09-03 01:14:51 | 41.26888 | -114.78754 | 75° | 142km/h | 12675m | -10.1m/s | -47.1°C | 0% | 0hPa | 0V | 00:00:00 | 00:00:00 | 00:00:00 | |
| KE7DJD | 2026-09-03 01:14:31 | 41.26695 | -114.79719 | 79° | 141km/h | 12891m | -10.4m/s | -45.2°C | 0% | 0hPa | 0V | 00:00:00 | 00:00:00 | 00:00:00 | |
| KE7DJD | 2026-09-03 01:14:09 | 41.26573 | -114.80652 | 83° | 130km/h | 13104m | -10.0m/s | -46.1°C | 0% | 0hPa | 0V | 00:00:00 | 00:00:00 | 00:00:00 | |
| KE7DJD | 2026-09-03 01:13:49 | 41.26484 | -114.81485 | 82° | 120km/h | 13308m | -10.2m/s | -47.8°C | 0% | 0hPa | 0V | 00:00:00 | 00:00:00 | 00:00:00 | |
| KE7DJD | 2026-09-03 01:13:29 | 41.26338 | -114.82299 | 75° | 119km/h | 13530m | -10.8m/s | -48.7°C | 0% | 0hPa | 0V | 00:00:00 | 00:00:00 | 00:00:00 | |
| KE7DJD | 2026-09-03 01:13:09 | 41.26153 | -114.83034 | 69° | 110km/h | 13751m | -11.2m/s | -47.8°C | 0% | 0hPa | 0V | 00:00:00 | 00:00:00 | 00:00:00 | |
| KE7DJD | 2026-09-03 01:12:48 | 41.25917 | -114.83703 | 63° | 111km/h | 13988m | -11.6m/s | -48.0°C | 0% | 0hPa | 0V | 00:00:00 | 00:00:00 | 00:00:00 | |
| KE7DJD | 2026-09-03 01:12:28 | 41.25642 | -114.84406 | 66° | 120km/h | 14224m | -11.9m/s | -48.7°C | 0% | 0hPa | 0V | 00:00:00 | 00:00:00 | 00:00:00 | |
| KE7DJD | 2026-09-03 01:12:07 | 41.25434 | -114.85177 | 78° | 104km/h | 14481m | -12.3m/s | -47.9°C | 0% | 0hPa | 0V | 00:00:00 | 00:00:00 | 00:00:00 | |
| KE7DJD | 2026-09-03 01:11:46 | 41.25335 | -114.85767 | 72° | 73km/h | 14728m | -12.3m/s | -48.3°C | 0% | 0hPa | 0V | 00:00:00 | 00:00:00 | 00:00:00 | |
| KE7DJD | 2026-09-03 01:11:26 | 41.25171 | -114.86210 | 55° | 78km/h | 14988m | -12.5m/s | -49.3°C | 0% | 0hPa | 0V | 00:00:00 | 00:00:00 | 00:00:00 | |
| KE7DJD | 2026-09-03 01:11:05 | 41.24929 | -114.86649 | 50° | 73km/h | 15239m | -12.9m/s | -48.0°C | 0% | 0hPa | 0V | 00:00:00 | 00:00:00 | 00:00:00 | |
| KE7DJD | 2026-09-03 01:10:45 | 41.24638 | -114.87040 | 45° | 82km/h | 15511m | -13.2m/s | -50.1°C | 0% | 0hPa | 0V | 00:00:00 | 00:00:00 | 00:00:00 | |
| KE7DJD | 2026-09-03 01:10:24 | 41.24338 | -114.87495 | 56° | 93km/h | 15779m | -13.7m/s | -50.6°C | 0% | 0hPa | 0V | 00:00:00 | 00:00:00 | 00:00:00 | |
| KE7DJD | 2026-09-03 01:10:04 | 41.24158 | -114.88005 | 66° | 69km/h | 16063m | -13.4m/s | -48.9°C | 0% | 0hPa | 0V | 00:00:00 | 00:00:00 | 00:00:00 | |
| KE7DJD | 2026-09-03 01:09:44 | 41.23976 | -114.88430 | 61° | 77km/h | 16336m | -13.8m/s | -49.4°C | 0% | 0hPa | 0V | 00:00:00 | 00:00:00 | 00:00:00 | |
| KE7DJD | 2026-09-03 01:09:23 | 41.23783 | -114.88900 | 64° | 73km/h | 16608m | -10.9m/s | -48.7°C | 0% | 0hPa | 0V | 00:00:00 | 00:00:00 | 00:00:00 | |
| KE7DJD | 2026-09-03 01:09:01 | 41.23583 | -114.89322 | 59° | 68km/h | 16848m | -11.6m/s | -49.4°C | 0% | 0hPa | 0V | 00:00:00 | 00:00:00 | 00:00:00 | |
| KE7DJD | 2026-09-03 01:08:41 | 41.23444 | -114.89764 | 72° | 69km/h | 17090m | -11.6m/s | -49.4°C | 0% | 0hPa | 0V | 00:00:00 | 00:00:00 | 00:00:00 | |
| KE7DJD | 2026-09-03 01:08:20 | 41.23352 | -114.90243 | 81° | 62km/h | 17343m | -12.1m/s | -48.0°C | 0% | 0hPa | 0V | 00:00:00 | 00:00:00 | 00:00:00 | |
| KE7DJD | 2026-09-03 01:07:59 | 41.23294 | -114.90528 | 56° | 31km/h | 17599m | -12.2m/s | -47.0°C | 0% | 0hPa | 0V | 00:00:00 | 00:00:00 | 00:00:00 | |
| KE7DJD | 2026-09-03 01:07:38 | 41.23159 | -114.90671 | 29° | 38km/h | 17860m | -12.2m/s | -48.9°C | 0% | 0hPa | 0V | 00:00:00 | 00:00:00 | 00:00:00 | |
| KE7DJD | 2026-09-03 01:07:18 | 41.22951 | -114.90800 | 20° | 55km/h | 18110m | -12.9m/s | -49.3°C | 0% | 0hPa | 0V | 00:00:00 | 00:00:00 | 00:00:00 | |
| KE7DJD | 2026-09-03 01:06:56 | 41.22743 | -114.90994 | 46° | 40km/h | 18372m | -11.4m/s | -49.5°C | 0% | 0hPa | 0V | 00:00:00 | 00:00:00 | 00:00:00 | |
| KE7DJD | 2026-09-03 01:06:36 | 41.22623 | -114.91182 | 57° | 38km/h | 18641m | -13.2m/s | -48.1°C | 0% | 0hPa | 0V | 00:00:00 | 00:00:00 | 00:00:00 | |
| KE7DJD | 2026-09-03 01:06:15 | 41.22568 | -114.91344 | 97° | 22km/h | 18900m | -12.6m/s | -47.3°C | 0% | 0hPa | 0V | 00:00:00 | 00:00:00 | 00:00:00 | |
| KE7DJD | 2026-09-03 01:05:55 | 41.22592 | -114.91501 | 119° | 20km/h | 19166m | -13.3m/s | -46.9°C | 0% | 0hPa | 0V | 00:00:00 | 00:00:00 | 00:00:00 | |
| KE7DJD | 2026-09-03 01:05:35 | 41.22602 | -114.91570 | 24° | 7km/h | 19454m | -13.9m/s | -48.3°C | 0% | 0hPa | 0V | 00:00:00 | 00:00:00 | 00:00:00 | |
| KE7DJD | 2026-09-03 01:05:14 | 41.22573 | -114.91589 | 35° | 5km/h | 19728m | -13.6m/s | -50.6°C | 0% | 0hPa | 0V | 00:00:00 | 00:00:00 | 00:00:00 | |
| KE7DJD | 2026-09-03 01:04:54 | 41.22544 | -114.91644 | 61° | 15km/h | 20031m | -14.9m/s | -49.6°C | 0% | 0hPa | 0V | 00:00:00 | 00:00:00 | 00:00:00 | |
| KE7DJD | 2026-09-03 01:04:33 | 41.22445 | -114.91709 | 19° | 31km/h | 20336m | -15.3m/s | -49.4°C | 0% | 0hPa | 0V | 00:00:00 | 00:00:00 | 00:00:00 | |
| KE7DJD | 2026-09-03 01:04:13 | 41.22311 | -114.91832 | 73° | 31km/h | 20660m | -15.5m/s | -48.9°C | 0% | 0hPa | 0V | 00:00:00 | 00:00:00 | 00:00:00 | |
| KE7DJD | 2026-09-03 01:03:51 | 41.22295 | -114.91956 | 61° | 15km/h | 20989m | -15.4m/s | -47.8°C | 0% | 0hPa | 0V | 00:00:00 | 00:00:00 | 00:00:00 | |
| KE7DJD | 2026-09-03 01:03:30 | 41.22277 | -114.91983 | 45° | 4km/h | 21317m | -15.8m/s | -48.0°C | 0% | 0hPa | 0V | 00:00:00 | 00:00:00 | 00:00:00 | |
| KE7DJD | 2026-09-03 01:03:10 | 41.22330 | -114.91913 | 224° | 20km/h | 21651m | -16.5m/s | -47.2°C | 0% | 0hPa | 0V | 00:00:00 | 00:00:00 | 00:00:00 | |
| KE7DJD | 2026-09-03 01:02:49 | 41.22363 | -114.91867 | 211° | 4km/h | 21976m | -13.7m/s | -48.2°C | 0% | 0hPa | 0V | 00:00:00 | 00:00:00 | 00:00:00 | |
| KE7DJD | 2026-09-03 01:02:28 | 41.22357 | -114.91844 | 14° | 5km/h | 22318m | -18.0m/s | -48.1°C | 0% | 0hPa | 0V | 00:00:00 | 00:00:00 | 00:00:00 | |
| KE7DJD | 2026-09-03 01:02:08 | 41.22332 | -114.91821 | 330° | 7km/h | 22705m | -18.2m/s | -48.1°C | 0% | 0hPa | 0V | 00:00:00 | 00:00:00 | 00:00:00 | |
| KE7DJD | 2026-09-03 01:01:46 | 41.22366 | -114.91837 | 179° | 18km/h | 23104m | -18.7m/s | -46.0°C | 0% | 0hPa | 0V | 00:00:00 | 00:00:00 | 00:00:00 | |
| KE7DJD | 2026-09-03 01:01:26 | 41.22403 | -114.91772 | 233° | 15km/h | 23513m | -19.5m/s | -47.2°C | 0% | 0hPa | 0V | 00:00:00 | 00:00:00 | 00:00:00 | |
| KE7DJD | 2026-09-03 01:01:06 | 41.22436 | -114.91612 | 289° | 24km/h | 23916m | -19.8m/s | -47.6°C | 0% | 0hPa | 0V | 00:00:00 | 00:00:00 | 00:00:00 | |
| KE7DJD | 2026-09-03 01:00:45 | 41.22375 | -114.91538 | 349° | 15km/h | 24320m | -20.6m/s | -47.2°C | 0% | 0hPa | 0V | 00:00:00 | 00:00:00 | 00:00:00 | |
| KE7DJD | 2026-09-03 01:00:25 | 41.22342 | -114.91512 | 129° | 7km/h | 24764m | -21.3m/s | -44.9°C | 0% | 0hPa | 0V | 00:00:00 | 00:00:00 | 00:00:00 | |
| KE7DJD | 2026-09-03 01:00:04 | 41.22392 | -114.91538 | 163° | 16km/h | 25209m | -23.4m/s | -44.0°C | 0% | 0hPa | 0V | 00:00:00 | 00:00:00 | 00:00:00 | |
| KE7DJD | 2026-09-03 00:59:44 | 41.22471 | -114.91514 | 209° | 26km/h | 25712m | -24.1m/s | -42.9°C | 0% | 0hPa | 0V | 00:00:00 | 00:00:00 | 00:00:00 | |
| KE7DJD | 2026-09-03 00:59:23 | 41.22566 | -114.91450 | 223° | 20km/h | 26202m | -23.1m/s | -43.0°C | 0% | 0hPa | 0V | 00:00:00 | 00:00:00 | 00:00:00 | |
| KE7DJD | 2026-09-03 00:59:02 | 41.22617 | -114.91355 | 201° | 15km/h | 26722m | -25.6m/s | -42.4°C | 0% | 0hPa | 0V | 00:00:00 | 00:00:00 | 00:00:00 | |
| KE7DJD | 2026-09-03 00:58:42 | 41.22703 | -114.91295 | 249° | 20km/h | 27242m | -27.2m/s | -40.4°C | 0% | 0hPa | 0V | 00:00:00 | 00:00:00 | 00:00:00 | |
| KE7DJD | 2026-09-03 00:58:22 | 41.22786 | -114.91144 | 222° | 29km/h | 27824m | -28.8m/s | -39.0°C | 0% | 0hPa | 0V | 00:00:00 | 00:00:00 | 00:00:00 | |
| KE7DJD | 2026-09-03 00:58:01 | 41.22870 | -114.90995 | 278° | 31km/h | 28412m | -30.4m/s | -39.6°C | 0% | 0hPa | 0V | 00:00:00 | 00:00:00 | 00:00:00 | |
| KE7DJD | 2026-09-03 00:57:41 | 41.22861 | -114.90885 | 276° | 16km/h | 29071m | -33.0m/s | -40.2°C | 0% | 0hPa | 0V | 00:00:00 | 00:00:00 | 00:00:00 | |
| KE7DJD | 2026-09-03 00:57:20 | 41.22875 | -114.90775 | 229° | 24km/h | 29715m | -32.3m/s | -39.1°C | 0% | 0hPa | 0V | 00:00:00 | 00:00:00 | 00:00:00 | |
| KE7DJD | 2026-09-03 00:57:00 | 41.22918 | -114.90684 | 320° | 16km/h | 30428m | -36.0m/s | -36.9°C | 0% | 0hPa | 0V | 00:00:00 | 00:00:00 | 00:00:00 | |
| KE7DJD | 2026-09-03 00:56:39 | 41.22932 | -114.90594 | 265° | 22km/h | 31152m | -37.5m/s | -35.8°C | 0% | 0hPa | 0V | 00:00:00 | 00:00:00 | 00:00:00 | |
| KE7DJD | 2026-09-03 00:56:19 | 41.22923 | -114.90524 | 232° | 15km/h | 31950m | -39.6m/s | -32.7°C | 0% | 0hPa | 0V | 00:00:00 | 00:00:00 | 00:00:00 | |
| KE7DJD | 2026-09-03 00:55:58 | 41.22967 | -114.90442 | 224° | 9km/h | 32826m | -43.1m/s | -31.2°C | 0% | 0hPa | 0V | 00:00:00 | 00:00:00 | 00:00:00 | |
| KE7DJD | 2026-09-03 00:55:38 | 41.23019 | -114.90377 | 238° | 5km/h | 33610m | -34.2m/s | -30.6°C | 0% | 0hPa | 0V | 00:00:00 | 00:00:00 | 00:00:00 | |
| KE7DJD | 2026-09-03 00:55:16 | 41.23075 | -114.90263 | 217° | 24km/h | 34310m | -35.3m/s | -30.7°C | 0% | 0hPa | 0V | 00:00:00 | 00:00:00 | 00:00:00 | |
| KE7DJD | 2026-09-03 00:54:55 | 41.23048 | -114.90198 | 137° | 18km/h | 35118m | -44.2m/s | -29.4°C | 0% | 0hPa | 0V | 00:00:00 | 00:00:00 | 00:00:00 | |
| KE7DJD | 2026-09-03 00:54:34 | 41.23025 | -114.90180 | 323° | 22km/h | 35594m | 8.7m/s | -28.0°C | 0% | 0hPa | 0V | 00:00:00 | 00:00:00 | 00:00:00 | |
| KE7DJD | 2026-09-03 00:54:12 | 41.22975 | -114.90112 | 232° | 29km/h | 35476m | 5.1m/s | -28.7°C | 0% | 0hPa | 0V | 00:00:00 | 00:00:00 | 00:00:00 | |
| KE7DJD | 2026-09-03 00:53:51 | 41.22959 | -114.90137 | 254° | 15km/h | 35366m | 6.1m/s | -29.1°C | 0% | 0hPa | 0V | 00:00:00 | 00:00:00 | 00:00:00 | |
| KE7DJD | 2026-09-03 00:53:31 | 41.22936 | -114.90199 | 240° | 29km/h | 35243m | 3.7m/s | -29.5°C | 0% | 0hPa | 0V | 00:00:00 | 00:00:00 | 00:00:00 | |
| KE7DJD | 2026-09-03 00:53:09 | 41.22834 | -114.90172 | 316° | 20km/h | 35123m | 4.6m/s | -29.6°C | 0% | 0hPa | 0V | 00:00:00 | 00:00:00 | 00:00:00 | |
| KE7DJD | 2026-09-03 00:52:48 | 41.22714 | -114.90054 | 283° | 18km/h | 35010m | -0.1m/s | -30.4°C | 0% | 0hPa | 0V | 00:00:00 | 00:00:00 | 00:00:00 | |
| KE7DJD | 2026-09-03 00:52:27 | 41.22625 | -114.89894 | 291° | 29km/h | 34892m | 8.2m/s | -30.2°C | 0% | 0hPa | 0V | 00:00:00 | 00:00:00 | 00:00:00 | |
| KE7DJD | 2026-09-03 00:51:52 | 41.22648 | -114.89677 | 232° | 24km/h | 34693m | 3.4m/s | -30.2°C | 0% | 0hPa | 0V | 00:00:00 | 00:00:00 | 00:00:00 | |
| KE7DJD | 2026-09-03 00:51:31 | 41.22768 | -114.89640 | 168° | 18km/h | 34579m | 6.0m/s | -29.8°C | 0% | 0hPa | 0V | 00:00:00 | 00:00:00 | 00:00:00 | |
| KE7DJD | 2026-09-03 00:51:10 | 41.22922 | -114.89678 | 171° | 78km/h | 34441m | 7.4m/s | -30.1°C | 0% | 0hPa | 0V | 00:00:00 | 00:00:00 | 00:00:00 | |
| KE7DJD | 2026-09-03 00:50:44 | 41.23045 | -114.89767 | 118° | 35km/h | 34295m | 2.8m/s | -30.5°C | 0% | 0hPa | 0V | 00:00:00 | 00:00:00 | 00:00:00 | |
| KE7DJD | 2026-09-03 00:50:16 | 41.23109 | -114.89764 | 138° | 35km/h | 34133m | 0.0m/s | -29.8°C | 0% | 0hPa | 0V | 00:00:00 | 00:00:00 | 00:00:00 | |
| KE7DJD | 2026-09-03 00:49:51 | 41.23121 | -114.89673 | 16° | 18km/h | 33996m | 4.8m/s | -29.9°C | 0% | 0hPa | 0V | 00:00:00 | 00:00:00 | 00:00:00 | |
| KE7DJD | 2026-09-03 00:49:29 | 41.23142 | -114.89632 | 176° | 51km/h | 33873m | 1.5m/s | -29.8°C | 0% | 0hPa | 0V | 00:00:00 | 00:00:00 | 00:00:00 | |
| KE7DJD | 2026-09-03 00:49:09 | 41.23184 | -114.89597 | 196° | 40km/h | 33770m | 0.0m/s | -30.9°C | 0% | 0hPa | 0V | 00:00:00 | 00:00:00 | 00:00:00 | |
| KE7DJD | 2026-09-03 00:48:46 | 41.23219 | -114.89550 | 22° | 37km/h | 33650m | 2.0m/s | -31.6°C | 0% | 0hPa | 0V | 00:00:00 | 00:00:00 | 00:00:00 | |
| KE7DJD | 2026-09-03 00:48:26 | 41.23280 | -114.89448 | 48° | 20km/h | 33551m | 2.8m/s | -31.5°C | 0% | 0hPa | 0V | 00:00:00 | 00:00:00 | 00:00:00 | |
| KE7DJD | 2026-09-03 00:48:06 | 41.23353 | -114.89319 | 210° | 22km/h | 33448m | 4.6m/s | -31.4°C | 0% | 0hPa | 0V | 00:00:00 | 00:00:00 | 00:00:00 | |
| KE7DJD | 2026-09-03 00:47:45 | 41.23418 | -114.89242 | 216° | 42km/h | 33337m | 10.2m/s | -32.4°C | 0% | 0hPa | 0V | 00:00:00 | 00:00:00 | 00:00:00 | |
| KE7DJD | 2026-09-03 00:47:25 | 41.23531 | -114.89147 | 250° | 46km/h | 33221m | -0.1m/s | -33.0°C | 0% | 0hPa | 0V | 00:00:00 | 00:00:00 | 00:00:00 | |
| KE7DJD | 2026-09-03 00:47:01 | 41.23645 | -114.89116 | 133° | 49km/h | 33088m | 2.8m/s | -32.2°C | 0% | 0hPa | 0V | 00:00:00 | 00:00:00 | 00:00:00 | |
| KE7DJD | 2026-09-03 00:46:37 | 41.23745 | -114.89062 | 277° | 26km/h | 32956m | 0.7m/s | -32.4°C | 0% | 0hPa | 0V | 00:00:00 | 00:00:00 | 00:00:00 | |
| KE7DJD | 2026-09-03 00:46:18 | 41.23792 | -114.89034 | 139° | 4km/h | 32839m | 6.7m/s | -32.9°C | 0% | 0hPa | 0V | 00:00:00 | 00:00:00 | 00:00:00 | |
| KE7DJD | 2026-09-03 00:45:57 | 41.23822 | -114.88991 | 173° | 38km/h | 32713m | 3.3m/s | -33.5°C | 0% | 0hPa | 0V | 00:00:00 | 00:00:00 | 00:00:00 | |
| KE7DJD | 2026-09-03 00:45:29 | 41.23819 | -114.88845 | 200° | 42km/h | 32556m | 8.7m/s | -33.3°C | 0% | 0hPa | 0V | 00:00:00 | 00:00:00 | 00:00:00 | |
| KE7DJD | 2026-09-03 00:45:08 | 41.23862 | -114.88692 | 231° | 57km/h | 32454m | 1.1m/s | -33.4°C | 0% | 0hPa | 0V | 00:00:00 | 00:00:00 | 00:00:00 | |
| KE7DJD | 2026-09-03 00:44:46 | 41.23887 | -114.88490 | 320° | 13km/h | 32338m | 1.3m/s | -33.4°C | 0% | 0hPa | 0V | 00:00:00 | 00:00:00 | 00:00:00 | |
| KE7DJD | 2026-09-03 00:43:44 | 41.24023 | -114.88226 | 92° | 44km/h | 32030m | 1.6m/s | -34.2°C | 0% | 0hPa | 0V | 00:00:00 | 00:00:00 | 00:00:00 | |
| KE7DJD | 2026-09-03 00:43:20 | 41.23996 | -114.88137 | 218° | 29km/h | 31913m | 4.5m/s | -35.5°C | 0% | 0hPa | 0V | 00:00:00 | 00:00:00 | 00:00:00 | |
| KE7DJD | 2026-09-03 00:43:00 | 41.23967 | -114.88169 | 51° | 44km/h | 31796m | 2.1m/s | -36.0°C | 0% | 0hPa | 0V | 00:00:00 | 00:00:00 | 00:00:00 | |
| KE7DJD | 2026-09-03 00:42:39 | 41.23901 | -114.88135 | 338° | 24km/h | 31686m | 5.9m/s | -36.0°C | 0% | 0hPa | 0V | 00:00:00 | 00:00:00 | 00:00:00 | |
| KE7DJD | 2026-09-03 00:42:20 | 41.23867 | -114.87993 | 281° | 44km/h | 31567m | 2.0m/s | -37.0°C | 0% | 0hPa | 0V | 00:00:00 | 00:00:00 | 00:00:00 | |
| KE7DJD | 2026-09-03 00:41:58 | 41.23831 | -114.87924 | 78° | 20km/h | 31446m | 6.6m/s | -36.6°C | 0% | 0hPa | 0V | 00:00:00 | 00:00:00 | 00:00:00 | |
| KE7DJD | 2026-09-03 00:41:36 | 41.23842 | -114.87823 | 243° | 27km/h | 31330m | 8.5m/s | -36.5°C | 0% | 0hPa | 0V | 00:00:00 | 00:00:00 | 00:00:00 | |
| KE7DJD | 2026-09-03 00:41:14 | 41.23920 | -114.87690 | 226° | 24km/h | 31206m | 6.2m/s | -36.8°C | 0% | 0hPa | 0V | 00:00:00 | 00:00:00 | 00:00:00 | |
| KE7DJD | 2026-09-03 00:40:53 | 41.23962 | -114.87636 | 272° | 5km/h | 31078m | 6.3m/s | -36.7°C | 0% | 0hPa | 0V | 00:00:00 | 00:00:00 | 00:00:00 | |
| KE7DJD | 2026-09-03 00:40:29 | 41.23964 | -114.87543 | 297° | 4km/h | 30947m | 8.0m/s | -36.4°C | 0% | 0hPa | 0V | 00:00:00 | 00:00:00 | 00:00:00 | |
| KE7DJD | 2026-09-03 00:40:08 | 41.24037 | -114.87512 | 188° | 27km/h | 30824m | 4.4m/s | -36.0°C | 0% | 0hPa | 0V | 00:00:00 | 00:00:00 | 00:00:00 | |
| KE7DJD | 2026-09-03 00:39:47 | 41.24084 | -114.87427 | 288° | 46km/h | 30710m | 3.6m/s | -35.7°C | 0% | 0hPa | 0V | 00:00:00 | 00:00:00 | 00:00:00 | |
| KE7DJD | 2026-09-03 00:39:27 | 41.24110 | -114.87366 | 150° | 13km/h | 30599m | 9.1m/s | -35.6°C | 0% | 0hPa | 0V | 00:00:00 | 00:00:00 | 00:00:00 | |
| KE7DJD | 2026-09-03 00:39:05 | 41.24101 | -114.87342 | 353° | 18km/h | 30489m | 4.8m/s | -35.7°C | 0% | 0hPa | 0V | 00:00:00 | 00:00:00 | 00:00:00 | |
| KE7DJD | 2026-09-03 00:38:43 | 41.24012 | -114.87250 | 285° | 35km/h | 30371m | 3.5m/s | -36.5°C | 0% | 0hPa | 0V | 00:00:00 | 00:00:00 | 00:00:00 | |
| KE7DJD | 2026-09-03 00:38:22 | 41.24000 | -114.87159 | 154° | 26km/h | 30256m | 2.1m/s | -37.0°C | 0% | 0hPa | 0V | 00:00:00 | 00:00:00 | 00:00:00 | |
| KE7DJD | 2026-09-03 00:38:00 | 41.24024 | -114.87025 | 275° | 31km/h | 30134m | 1.3m/s | -37.3°C | 0% | 0hPa | 0V | 00:00:00 | 00:00:00 | 00:00:00 | |
| KE7DJD | 2026-09-03 00:37:40 | 41.24096 | -114.86964 | 173° | 16km/h | 30020m | 6.7m/s | -37.5°C | 0% | 0hPa | 0V | 00:00:00 | 00:00:00 | 00:00:00 | |
| KE7DJD | 2026-09-03 00:37:20 | 41.24190 | -114.86945 | 208° | 20km/h | 29904m | 7.3m/s | -38.1°C | 0% | 0hPa | 0V | 00:00:00 | 00:00:00 | 00:00:00 | |
| KE7DJD | 2026-09-03 00:36:58 | 41.24249 | -114.86825 | 245° | 24km/h | 29788m | 5.5m/s | -38.7°C | 0% | 0hPa | 0V | 00:00:00 | 00:00:00 | 00:00:00 | |
| KE7DJD | 2026-09-03 00:36:37 | 41.24363 | -114.86739 | 229° | 26km/h | 29664m | 8.4m/s | -39.2°C | 0% | 0hPa | 0V | 00:00:00 | 00:00:00 | 00:00:00 | |
| KE7DJD | 2026-09-03 00:36:16 | 41.24453 | -114.86605 | 254° | 31km/h | 29547m | 4.4m/s | -39.4°C | 0% | 0hPa | 0V | 00:00:00 | 00:00:00 | 00:00:00 | |
| KE7DJD | 2026-09-03 00:35:56 | 41.24495 | -114.86530 | 166° | 18km/h | 29431m | 2.5m/s | -39.5°C | 0% | 0hPa | 0V | 00:00:00 | 00:00:00 | 00:00:00 | |
| KE7DJD | 2026-09-03 00:35:36 | 41.24482 | -114.86452 | 296° | 42km/h | 29314m | 5.1m/s | -39.5°C | 0% | 0hPa | 0V | 00:00:00 | 00:00:00 | 00:00:00 | |
| KE7DJD | 2026-09-03 00:35:14 | 41.24444 | -114.86340 | 119° | 9km/h | 29194m | 4.2m/s | -39.4°C | 0% | 0hPa | 0V | 00:00:00 | 00:00:00 | 00:00:00 | |
| KE7DJD | 2026-09-03 00:34:54 | 41.24424 | -114.86228 | 264° | 46km/h | 29076m | 2.1m/s | -39.5°C | 0% | 0hPa | 0V | 00:00:00 | 00:00:00 | 00:00:00 | |
| KE7DJD | 2026-09-03 00:34:33 | 41.24425 | -114.86134 | 132° | 13km/h | 28965m | 7.7m/s | -39.2°C | 0% | 0hPa | 0V | 00:00:00 | 00:00:00 | 00:00:00 | |
| KE7DJD | 2026-09-03 00:34:14 | 41.24469 | -114.86049 | 270° | 37km/h | 28851m | 7.3m/s | -39.3°C | 0% | 0hPa | 0V | 00:00:00 | 00:00:00 | 00:00:00 | |
| KE7DJD | 2026-09-03 00:33:53 | 41.24471 | -114.85948 | 85° | 13km/h | 28735m | 6.8m/s | -39.4°C | 0% | 0hPa | 0V | 00:00:00 | 00:00:00 | 00:00:00 | |
| KE7DJD | 2026-09-03 00:33:33 | 41.24435 | -114.85879 | 315° | 20km/h | 28629m | 7.2m/s | -39.1°C | 0% | 0hPa | 0V | 00:00:00 | 00:00:00 | 00:00:00 | |
| KE7DJD | 2026-09-03 00:33:12 | 41.24356 | -114.85727 | 305° | 33km/h | 28508m | 6.2m/s | -39.0°C | 0% | 0hPa | 0V | 00:00:00 | 00:00:00 | 00:00:00 | |
| KE7DJD | 2026-09-03 00:32:51 | 41.24343 | -114.85550 | 278° | 29km/h | 28392m | 7.8m/s | -39.2°C | 0% | 0hPa | 0V | 00:00:00 | 00:00:00 | 00:00:00 | |
| KE7DJD | 2026-09-03 00:32:31 | 41.24384 | -114.85366 | 172° | 16km/h | 28266m | 5.6m/s | -39.0°C | 0% | 0hPa | 0V | 00:00:00 | 00:00:00 | 00:00:00 | |
| KE7DJD | 2026-09-03 00:31:50 | 41.24632 | -114.85121 | 170° | 16km/h | 28023m | 7.7m/s | -39.2°C | 0% | 0hPa | 0V | 00:00:00 | 00:00:00 | 00:00:00 | |
| KE7DJD | 2026-09-03 00:31:29 | 41.24763 | -114.85068 | 219° | 46km/h | 27902m | 6.8m/s | -38.8°C | 0% | 0hPa | 0V | 00:00:00 | 00:00:00 | 00:00:00 | |
| KE7DJD | 2026-09-03 00:30:48 | 41.24969 | -114.84808 | 243° | 46km/h | 27673m | 6.3m/s | -39.5°C | 0% | 0hPa | 0V | 00:00:00 | 00:00:00 | 00:00:00 | |
| KE7DJD | 2026-09-03 00:30:27 | 41.25090 | -114.84698 | 167° | 15km/h | 27565m | 7.1m/s | -39.6°C | 0% | 0hPa | 0V | 00:00:00 | 00:00:00 | 00:00:00 | |
| KE7DJD | 2026-09-03 00:30:07 | 41.25230 | -114.84626 | 214° | 42km/h | 27451m | 4.1m/s | -39.8°C | 0% | 0hPa | 0V | 00:00:00 | 00:00:00 | 00:00:00 | |
| KE7DJD | 2026-09-03 00:29:47 | 41.25333 | -114.84568 | 210° | 13km/h | 27343m | 4.1m/s | -40.1°C | 0% | 0hPa | 0V | 00:00:00 | 00:00:00 | 00:00:00 | |
| KE7DJD | 2026-09-03 00:29:26 | 41.25396 | -114.84439 | 257° | 15km/h | 27229m | 6.9m/s | -40.6°C | 0% | 0hPa | 0V | 00:00:00 | 00:00:00 | 00:00:00 | |
| KE7DJD | 2026-09-03 00:29:05 | 41.25447 | -114.84348 | 217° | 26km/h | 27121m | 6.4m/s | -40.8°C | 0% | 0hPa | 0V | 00:00:00 | 00:00:00 | 00:00:00 | |
| KE7DJD | 2026-09-03 00:28:24 | 41.25637 | -114.84308 | 207° | 11km/h | 26900m | 7.3m/s | -42.0°C | 0% | 0hPa | 0V | 00:00:00 | 00:00:00 | 00:00:00 | |
| KE7DJD | 2026-09-03 00:28:04 | 41.25678 | -114.84260 | 209° | 24km/h | 26782m | 5.4m/s | -42.4°C | 0% | 0hPa | 0V | 00:00:00 | 00:00:00 | 00:00:00 | |
| KE7DJD | 2026-09-03 00:27:43 | 41.25678 | -114.84196 | 284° | 29km/h | 26669m | 4.3m/s | -42.4°C | 0% | 0hPa | 0V | 00:00:00 | 00:00:00 | 00:00:00 | |
| KE7DJD | 2026-09-03 00:27:23 | 41.25687 | -114.84074 | 296° | 15km/h | 26546m | 6.3m/s | -42.2°C | 0% | 0hPa | 0V | 00:00:00 | 00:00:00 | 00:00:00 | |
| KE7DJD | 2026-09-03 00:27:02 | 41.25706 | -114.83937 | 224° | 27km/h | 26433m | 5.2m/s | -42.1°C | 0% | 0hPa | 0V | 00:00:00 | 00:00:00 | 00:00:00 | |
| KE7DJD | 2026-09-03 00:26:42 | 41.25751 | -114.83803 | 235° | 15km/h | 26312m | 5.7m/s | -42.0°C | 0% | 0hPa | 0V | 00:00:00 | 00:00:00 | 00:00:00 | |
| KE7DJD | 2026-09-03 00:26:21 | 41.25798 | -114.83686 | 223° | 18km/h | 26196m | 5.9m/s | -42.0°C | 0% | 0hPa | 0V | 00:00:00 | 00:00:00 | 00:00:00 | |
| KE7DJD | 2026-09-03 00:26:00 | 41.25858 | -114.83648 | 138° | 7km/h | 26086m | 5.9m/s | -42.0°C | 0% | 0hPa | 0V | 00:00:00 | 00:00:00 | 00:00:00 | |
| KE7DJD | 2026-09-03 00:25:39 | 41.25916 | -114.83623 | 288° | 24km/h | 25973m | 4.1m/s | -41.9°C | 0% | 0hPa | 0V | 00:00:00 | 00:00:00 | 00:00:00 | |
| KE7DJD | 2026-09-03 00:25:19 | 41.25994 | -114.83584 | 239° | 11km/h | 25870m | 5.3m/s | -41.5°C | 0% | 0hPa | 0V | 00:00:00 | 00:00:00 | 00:00:00 | |
| KE7DJD | 2026-09-03 00:24:58 | 41.26106 | -114.83504 | 192° | 31km/h | 25758m | 5.1m/s | -42.3°C | 0% | 0hPa | 0V | 00:00:00 | 00:00:00 | 00:00:00 | |
| KE7DJD | 2026-09-03 00:24:38 | 41.26201 | -114.83495 | 162° | 13km/h | 25648m | 5.3m/s | -43.0°C | 0% | 0hPa | 0V | 00:00:00 | 00:00:00 | 00:00:00 | |
| KE7DJD | 2026-09-03 00:24:17 | 41.26234 | -114.83493 | 125° | 7km/h | 25544m | 6.8m/s | -43.6°C | 0% | 0hPa | 0V | 00:00:00 | 00:00:00 | 00:00:00 | |
| KE7DJD | 2026-09-03 00:23:58 | 41.26270 | -114.83491 | 208° | 11km/h | 25440m | 4.8m/s | -43.6°C | 0% | 0hPa | 0V | 00:00:00 | 00:00:00 | 00:00:00 | |
| KE7DJD | 2026-09-03 00:23:37 | 41.26356 | -114.83476 | 105° | 5km/h | 25333m | 4.7m/s | -43.6°C | 0% | 0hPa | 0V | 00:00:00 | 00:00:00 | 00:00:00 | |
| KE7DJD | 2026-09-03 00:23:16 | 41.26401 | -114.83493 | 341° | 11km/h | 25232m | 4.2m/s | -43.7°C | 0% | 0hPa | 0V | 00:00:00 | 00:00:00 | 00:00:00 | |
| KE7DJD | 2026-09-03 00:22:56 | 41.26384 | -114.83548 | 325° | 20km/h | 25125m | 4.4m/s | -44.2°C | 0% | 0hPa | 0V | 00:00:00 | 00:00:00 | 00:00:00 | |
| KE7DJD | 2026-09-03 00:22:36 | 41.26378 | -114.83578 | 151° | 18km/h | 25023m | 5.8m/s | -44.5°C | 0% | 0hPa | 0V | 00:00:00 | 00:00:00 | 00:00:00 | |
| KE7DJD | 2026-09-03 00:22:15 | 41.26411 | -114.83591 | 182° | 20km/h | 24916m | 4.9m/s | -45.4°C | 0% | 0hPa | 0V | 00:00:00 | 00:00:00 | 00:00:00 | |
| KE7DJD | 2026-09-03 00:21:54 | 41.26391 | -114.83607 | 87° | 26km/h | 24812m | 4.1m/s | -46.7°C | 0% | 0hPa | 0V | 00:00:00 | 00:00:00 | 00:00:00 | |
| KE7DJD | 2026-09-03 00:21:34 | 41.26363 | -114.83582 | 347° | 13km/h | 24702m | 4.7m/s | -47.1°C | 0% | 0hPa | 0V | 00:00:00 | 00:00:00 | 00:00:00 | |
| KE7DJD | 2026-09-03 00:21:13 | 41.26345 | -114.83501 | 289° | 24km/h | 24589m | 6.5m/s | -47.2°C | 0% | 0hPa | 0V | 00:00:00 | 00:00:00 | 00:00:00 | |
| KE7DJD | 2026-09-03 00:20:52 | 41.26333 | -114.83383 | 330° | 20km/h | 24483m | 5.5m/s | -46.8°C | 0% | 0hPa | 0V | 00:00:00 | 00:00:00 | 00:00:00 | |
| KE7DJD | 2026-09-03 00:20:31 | 41.26286 | -114.83315 | 352° | 15km/h | 24372m | 5.0m/s | -46.5°C | 0% | 0hPa | 0V | 00:00:00 | 00:00:00 | 00:00:00 | |
| KE7DJD | 2026-09-03 00:20:11 | 41.26230 | -114.83243 | 316° | 16km/h | 24265m | 5.9m/s | -46.4°C | 0% | 0hPa | 0V | 00:00:00 | 00:00:00 | 00:00:00 | |
| KE7DJD | 2026-09-03 00:19:50 | 41.26173 | -114.83167 | 262° | 13km/h | 24157m | 5.1m/s | -46.2°C | 0% | 0hPa | 0V | 00:00:00 | 00:00:00 | 00:00:00 | |
| KE7DJD | 2026-09-03 00:19:31 | 41.26145 | -114.83092 | 299° | 13km/h | 24052m | 4.6m/s | -46.9°C | 0% | 0hPa | 0V | 00:00:00 | 00:00:00 | 00:00:00 | |
| KE7DJD | 2026-09-03 00:19:10 | 41.26096 | -114.82955 | 268° | 37km/h | 23946m | 3.2m/s | -46.7°C | 0% | 0hPa | 0V | 00:00:00 | 00:00:00 | 00:00:00 | |
| KE7DJD | 2026-09-03 00:18:27 | 41.26113 | -114.82633 | 259° | 29km/h | 23735m | 7.0m/s | -46.4°C | 0% | 0hPa | 0V | 00:00:00 | 00:00:00 | 00:00:00 | |
| KE7DJD | 2026-09-03 00:18:07 | 41.26204 | -114.82506 | 240° | 38km/h | 23626m | 5.9m/s | -46.3°C | 0% | 0hPa | 0V | 00:00:00 | 00:00:00 | 00:00:00 | |
| KE7DJD | 2026-09-03 00:17:46 | 41.26287 | -114.82390 | 247° | 29km/h | 23517m | 4.0m/s | -46.0°C | 0% | 0hPa | 0V | 00:00:00 | 00:00:00 | 00:00:00 | |
| KE7DJD | 2026-09-03 00:17:26 | 41.26353 | -114.82324 | 226° | 16km/h | 23409m | 4.2m/s | -45.6°C | 0% | 0hPa | 0V | 00:00:00 | 00:00:00 | 00:00:00 | |
| KE7DJD | 2026-09-03 00:17:05 | 41.26374 | -114.82236 | 257° | 27km/h | 23299m | 4.9m/s | -45.4°C | 0% | 0hPa | 0V | 00:00:00 | 00:00:00 | 00:00:00 | |
| KE7DJD | 2026-09-03 00:16:44 | 41.26364 | -114.82135 | 265° | 16km/h | 23197m | 5.7m/s | -45.0°C | 0% | 0hPa | 0V | 00:00:00 | 00:00:00 | 00:00:00 | |
| KE7DJD | 2026-09-03 00:16:24 | 41.26375 | -114.82076 | 202° | 16km/h | 23089m | 5.5m/s | -45.3°C | 0% | 0hPa | 0V | 00:00:00 | 00:00:00 | 00:00:00 | |
| KE7DJD | 2026-09-03 00:16:03 | 41.26393 | -114.82097 | 123° | 5km/h | 22985m | 4.5m/s | -46.2°C | 0% | 0hPa | 0V | 00:00:00 | 00:00:00 | 00:00:00 | |
| KE7DJD | 2026-09-03 00:15:43 | 41.26379 | -114.82120 | 6° | 15km/h | 22882m | 5.9m/s | -47.3°C | 0% | 0hPa | 0V | 00:00:00 | 00:00:00 | 00:00:00 | |
| KE7DJD | 2026-09-03 00:15:22 | 41.26318 | -114.82088 | 317° | 18km/h | 22785m | 5.1m/s | -48.4°C | 0% | 0hPa | 0V | 00:00:00 | 00:00:00 | 00:00:00 | |
| KE7DJD | 2026-09-03 00:14:41 | 41.26279 | -114.81982 | 320° | 5km/h | 22590m | 4.6m/s | -48.7°C | 0% | 0hPa | 0V | 00:00:00 | 00:00:00 | 00:00:00 | |
| KE7DJD | 2026-09-03 00:14:21 | 41.26271 | -114.81927 | 312° | 16km/h | 22489m | 2.8m/s | -48.5°C | 0% | 0hPa | 0V | 00:00:00 | 00:00:00 | 00:00:00 | |
| KE7DJD | 2026-09-03 00:14:00 | 41.26252 | -114.81906 | 4° | 7km/h | 22390m | 4.4m/s | -48.5°C | 0% | 0hPa | 0V | 00:00:00 | 00:00:00 | 00:00:00 | |
| KE7DJD | 2026-09-03 00:13:39 | 41.26234 | -114.81865 | 251° | 5km/h | 22293m | 5.5m/s | -48.3°C | 0% | 0hPa | 0V | 00:00:00 | 00:00:00 | 00:00:00 | |
| KE7DJD | 2026-09-03 00:13:19 | 41.26240 | -114.81808 | 288° | 7km/h | 22190m | 4.5m/s | -48.3°C | 0% | 0hPa | 0V | 00:00:00 | 00:00:00 | 00:00:00 | |
| KE7DJD | 2026-09-03 00:12:58 | 41.26241 | -114.81757 | 243° | 4km/h | 22090m | 5.4m/s | -48.2°C | 0% | 0hPa | 0V | 00:00:00 | 00:00:00 | 00:00:00 | |
| KE7DJD | 2026-09-03 00:12:38 | 41.26254 | -114.81695 | 266° | 2km/h | 21984m | 5.9m/s | -47.7°C | 0% | 0hPa | 0V | 00:00:00 | 00:00:00 | 00:00:00 | |
| KE7DJD | 2026-09-03 00:12:17 | 41.26268 | -114.81700 | 146° | 13km/h | 21882m | 3.9m/s | -47.3°C | 0% | 0hPa | 0V | 00:00:00 | 00:00:00 | 00:00:00 | |
| KE7DJD | 2026-09-03 00:11:57 | 41.26302 | -114.81678 | 212° | 13km/h | 21770m | 6.3m/s | -46.7°C | 0% | 0hPa | 0V | 00:00:00 | 00:00:00 | 00:00:00 | |
| KE7DJD | 2026-09-03 00:11:36 | 41.26356 | -114.81644 | 194° | 15km/h | 21663m | 4.9m/s | -47.3°C | 0% | 0hPa | 0V | 00:00:00 | 00:00:00 | 00:00:00 | |
| KE7DJD | 2026-09-03 00:11:16 | 41.26460 | -114.81649 | 181° | 18km/h | 21561m | 4.9m/s | -47.5°C | 0% | 0hPa | 0V | 00:00:00 | 00:00:00 | 00:00:00 | |
| KE7DJD | 2026-09-03 00:10:55 | 41.26566 | -114.81674 | 170° | 11km/h | 21460m | 4.6m/s | -47.7°C | 0% | 0hPa | 0V | 00:00:00 | 00:00:00 | 00:00:00 | |
| KE7DJD | 2026-09-03 00:10:35 | 41.26640 | -114.81725 | 92° | 11km/h | 21355m | 5.7m/s | -47.2°C | 0% | 0hPa | 0V | 00:00:00 | 00:00:00 | 00:00:00 | |
| KE7DJD | 2026-09-03 00:10:14 | 41.26680 | -114.81812 | 69° | 15km/h | 21254m | 5.4m/s | -46.7°C | 0% | 0hPa | 0V | 00:00:00 | 00:00:00 | 00:00:00 | |
| KE7DJD | 2026-09-03 00:09:54 | 41.26664 | -114.81874 | 14° | 13km/h | 21150m | 5.0m/s | -46.9°C | 0% | 0hPa | 0V | 00:00:00 | 00:00:00 | 00:00:00 | |
| KE7DJD | 2026-09-03 00:09:33 | 41.26621 | -114.81906 | 66° | 16km/h | 21054m | 4.7m/s | -47.0°C | 0% | 0hPa | 0V | 00:00:00 | 00:00:00 | 00:00:00 | |
| KE7DJD | 2026-09-03 00:09:13 | 41.26582 | -114.81980 | 47° | 13km/h | 20955m | 4.1m/s | -46.9°C | 0% | 0hPa | 0V | 00:00:00 | 00:00:00 | 00:00:00 | |
| KE7DJD | 2026-09-03 00:08:51 | 41.26481 | -114.82089 | 30° | 33km/h | 20857m | 4.4m/s | -47.4°C | 0% | 0hPa | 0V | 00:00:00 | 00:00:00 | 00:00:00 | |
| KE7DJD | 2026-09-03 00:08:31 | 41.26414 | -114.82197 | 98° | 11km/h | 20762m | 5.3m/s | -47.4°C | 0% | 0hPa | 0V | 00:00:00 | 00:00:00 | 00:00:00 | |
| KE7DJD | 2026-09-03 00:08:10 | 41.26382 | -114.82331 | 69° | 24km/h | 20663m | 4.4m/s | -48.2°C | 0% | 0hPa | 0V | 00:00:00 | 00:00:00 | 00:00:00 | |
| KE7DJD | 2026-09-03 00:07:50 | 41.26289 | -114.82507 | 50° | 37km/h | 20565m | 6.0m/s | -48.3°C | 0% | 0hPa | 0V | 00:00:00 | 00:00:00 | 00:00:00 | |
| KE7DJD | 2026-09-03 00:07:29 | 41.26118 | -114.82630 | 28° | 37km/h | 20456m | 6.4m/s | -49.2°C | 0% | 0hPa | 0V | 00:00:00 | 00:00:00 | 00:00:00 | |
| KE7DJD | 2026-09-03 00:07:09 | 41.25958 | -114.82713 | 36° | 35km/h | 20356m | 5.9m/s | -48.9°C | 0% | 0hPa | 0V | 00:00:00 | 00:00:00 | 00:00:00 | |
| KE7DJD | 2026-09-03 00:06:49 | 41.25817 | -114.82789 | 16° | 33km/h | 20256m | 4.4m/s | -48.6°C | 0% | 0hPa | 0V | 00:00:00 | 00:00:00 | 00:00:00 | |
| KE7DJD | 2026-09-03 00:06:28 | 41.25708 | -114.82838 | 24° | 15km/h | 20164m | 5.6m/s | -49.4°C | 0% | 0hPa | 0V | 00:00:00 | 00:00:00 | 00:00:00 | |
| KE7DJD | 2026-09-03 00:06:08 | 41.25648 | -114.82880 | 31° | 22km/h | 20067m | 4.3m/s | -49.6°C | 0% | 0hPa | 0V | 00:00:00 | 00:00:00 | 00:00:00 | |
| KE7DJD | 2026-09-03 00:05:47 | 41.25611 | -114.82981 | 25° | 26km/h | 19981m | 3.0m/s | -50.3°C | 0% | 0hPa | 0V | 00:00:00 | 00:00:00 | 00:00:00 | |
| KE7DJD | 2026-09-03 00:05:27 | 41.25599 | -114.83031 | 321° | 5km/h | 19893m | 5.2m/s | -50.6°C | 0% | 0hPa | 0V | 00:00:00 | 00:00:00 | 00:00:00 | |
| KE7DJD | 2026-09-03 00:05:06 | 41.25595 | -114.83023 | 133° | 2km/h | 19805m | 4.9m/s | -50.1°C | 0% | 0hPa | 0V | 00:00:00 | 00:00:00 | 00:00:00 | |
| KE7DJD | 2026-09-03 00:04:47 | 41.25615 | -114.83003 | 205° | 11km/h | 19711m | 5.7m/s | -49.6°C | 0% | 0hPa | 0V | 00:00:00 | 00:00:00 | 00:00:00 | |
| KE7DJD | 2026-09-03 00:04:26 | 41.25658 | -114.83000 | 175° | 13km/h | 19620m | 5.6m/s | -49.6°C | 0% | 0hPa | 0V | 00:00:00 | 00:00:00 | 00:00:00 | |
| KE7DJD | 2026-09-03 00:04:05 | 41.25714 | -114.82989 | 210° | 11km/h | 19523m | 5.1m/s | -48.6°C | 0% | 0hPa | 0V | 00:00:00 | 00:00:00 | 00:00:00 | |
| KE7DJD | 2026-09-03 00:03:44 | 41.25759 | -114.82969 | 261° | 18km/h | 19422m | 4.8m/s | -47.8°C | 0% | 0hPa | 0V | 00:00:00 | 00:00:00 | 00:00:00 | |
| KE7DJD | 2026-09-03 00:03:24 | 41.25795 | -114.82926 | 308° | 27km/h | 19328m | 6.2m/s | -47.3°C | 0% | 0hPa | 0V | 00:00:00 | 00:00:00 | 00:00:00 | |
| KE7DJD | 2026-09-03 00:02:49 | 41.25701 | -114.83108 | 23° | 16km/h | 19029m | 4.2m/s | -48.4°C | 0% | 0hPa | 0V | 00:00:00 | 00:00:00 | 00:00:00 | |
| KE7DJD | 2026-09-03 00:02:20 | 41.25634 | -114.83187 | 71° | 18km/h | 18939m | 3.6m/s | -47.8°C | 0% | 0hPa | 0V | 00:00:00 | 00:00:00 | 00:00:00 | |
| KE7DJD | 2026-09-03 00:01:55 | 41.25551 | -114.83264 | 7° | 18km/h | 18846m | 5.0m/s | -47.9°C | 0% | 0hPa | 0V | 00:00:00 | 00:00:00 | 00:00:00 | |
| KE7DJD | 2026-09-03 00:01:32 | 41.25474 | -114.83300 | 20° | 24km/h | 18749m | 6.4m/s | -47.7°C | 0% | 0hPa | 0V | 00:00:00 | 00:00:00 | 00:00:00 | |
| KE7DJD | 2026-09-03 00:01:04 | 41.25388 | -114.83401 | 47° | 26km/h | 18639m | 6.4m/s | -47.5°C | 0% | 0hPa | 0V | 00:00:00 | 00:00:00 | 00:00:00 | |
| KE7DJD | 2026-09-03 00:00:46 | 41.25289 | -114.83572 | 55° | 47km/h | 18537m | 4.6m/s | -47.3°C | 0% | 0hPa | 0V | 00:00:00 | 00:00:00 | 00:00:00 | |
| KE7DJD | 2026-09-03 00:00:20 | 41.25166 | -114.83777 | 45° | 35km/h | 18431m | 5.2m/s | -48.0°C | 0% | 0hPa | 0V | 00:00:00 | 00:00:00 | 00:00:00 | |
| KE7DJD | 2026-09-02 23:59:58 | 41.25086 | -114.84014 | 38° | 53km/h | 18336m | 4.6m/s | -48.5°C | 0% | 0hPa | 0V | 00:00:00 | 00:00:00 | 00:00:00 | |
| KE7DJD | 2026-09-02 23:59:38 | 41.24942 | -114.84279 | 52° | 62km/h | 18232m | 5.8m/s | -48.1°C | 0% | 0hPa | 0V | 00:00:00 | 00:00:00 | 00:00:00 | |
| KE7DJD | 2026-09-02 23:59:18 | 41.24738 | -114.84528 | 30° | 58km/h | 18142m | 4.7m/s | -49.3°C | 0% | 0hPa | 0V | 00:00:00 | 00:00:00 | 00:00:00 | |
| KE7DJD | 2026-09-02 23:58:57 | 41.24543 | -114.84736 | 26° | 33km/h | 18050m | 4.3m/s | -50.2°C | 0% | 0hPa | 0V | 00:00:00 | 00:00:00 | 00:00:00 | |
| KE7DJD | 2026-09-02 23:58:35 | 41.24426 | -114.84924 | 61° | 38km/h | 17925m | 5.4m/s | -49.2°C | 0% | 0hPa | 0V | 00:00:00 | 00:00:00 | 00:00:00 | |
| KE7DJD | 2026-09-02 23:58:15 | 41.24322 | -114.85126 | 87° | 29km/h | 17823m | 3.3m/s | -48.4°C | 0% | 0hPa | 0V | 00:00:00 | 00:00:00 | 00:00:00 | |
| KE7DJD | 2026-09-02 23:57:55 | 41.24247 | -114.85342 | 77° | 40km/h | 17717m | 5.1m/s | -47.5°C | 0% | 0hPa | 0V | 00:00:00 | 00:00:00 | 00:00:00 | |
| KE7DJD | 2026-09-02 23:57:34 | 41.24190 | -114.85582 | 72° | 33km/h | 17622m | 4.9m/s | -47.0°C | 0% | 0hPa | 0V | 00:00:00 | 00:00:00 | 00:00:00 | |
| KE7DJD | 2026-09-02 23:57:13 | 41.24160 | -114.85878 | 80° | 53km/h | 17518m | 5.4m/s | -47.1°C | 0% | 0hPa | 0V | 00:00:00 | 00:00:00 | 00:00:00 | |
| KE7DJD | 2026-09-02 23:56:53 | 41.24124 | -114.86280 | 75° | 73km/h | 17411m | 4.7m/s | -47.8°C | 0% | 0hPa | 0V | 00:00:00 | 00:00:00 | 00:00:00 | |
| KE7DJD | 2026-09-02 23:56:33 | 41.24045 | -114.86715 | 76° | 60km/h | 17303m | 6.0m/s | -48.1°C | 0% | 0hPa | 0V | 00:00:00 | 00:00:00 | 00:00:00 | |
| KE7DJD | 2026-09-02 23:56:12 | 41.23915 | -114.87186 | 72° | 77km/h | 17200m | 5.5m/s | -48.7°C | 0% | 0hPa | 0V | 00:00:00 | 00:00:00 | 00:00:00 | |
| KE7DJD | 2026-09-02 23:55:52 | 41.23736 | -114.87654 | 58° | 75km/h | 17096m | 5.8m/s | -49.2°C | 0% | 0hPa | 0V | 00:00:00 | 00:00:00 | 00:00:00 | |
| KE7DJD | 2026-09-02 23:55:31 | 41.23536 | -114.88043 | 61° | 64km/h | 16998m | 3.6m/s | -48.5°C | 0% | 0hPa | 0V | 00:00:00 | 00:00:00 | 00:00:00 | |
| KE7DJD | 2026-09-02 23:55:10 | 41.23325 | -114.88408 | 51° | 60km/h | 16896m | 6.1m/s | -47.9°C | 0% | 0hPa | 0V | 00:00:00 | 00:00:00 | 00:00:00 | |
| KE7DJD | 2026-09-02 23:54:49 | 41.23095 | -114.88730 | 46° | 68km/h | 16797m | 3.7m/s | -46.9°C | 0% | 0hPa | 0V | 00:00:00 | 00:00:00 | 00:00:00 |